createdAt,value
2018-05-10T00:00:51.554Z,0
2018-05-10T00:02:01.386Z,0
2018-05-10T00:03:11.474Z,0
2018-05-10T00:04:21.610Z,0
2018-05-10T00:05:31.446Z,0
2018-05-10T00:06:41.517Z,0
2018-05-10T00:07:51.612Z,0
2018-05-10T00:09:01.773Z,0
2018-05-10T00:10:11.637Z,0
2018-05-10T00:11:21.725Z,0
2018-05-10T00:12:31.807Z,0
2018-05-10T00:13:41.896Z,0
2018-05-10T00:14:51.737Z,0
2018-05-10T00:16:01.868Z,0
2018-05-10T00:17:11.958Z,0
2018-05-10T00:18:21.783Z,0
2018-05-10T00:19:31.870Z,0
2018-05-10T00:20:41.936Z,0
2018-05-10T00:21:52.059Z,0
2018-05-10T00:23:01.863Z,0
2018-05-10T00:24:11.944Z,0
2018-05-10T00:25:22.024Z,0
2018-05-10T00:26:32.192Z,0
2018-05-10T00:27:42.311Z,0
2018-05-10T00:28:52.408Z,0
2018-05-10T00:30:02.480Z,0
2018-05-10T00:31:12.293Z,0
2018-05-10T00:32:22.355Z,0
2018-05-10T00:33:32.482Z,0
2018-05-10T00:34:42.544Z,0
2018-05-10T00:35:52.634Z,0
2018-05-10T00:37:02.716Z,0
2018-05-10T00:38:12.523Z,0
2018-05-10T00:39:22.678Z,0
2018-05-10T00:40:32.482Z,0
2018-05-10T00:41:42.557Z,0
2018-05-10T00:42:52.625Z,0
2018-05-10T00:44:02.698Z,0
2018-05-10T00:45:12.839Z,0
2018-05-10T00:46:22.648Z,0
2018-05-10T00:47:32.469Z,0
2018-05-10T00:48:42.266Z,0
2018-05-10T00:49:52.341Z,0
2018-05-10T00:51:02.459Z,0
2018-05-10T00:52:12.389Z,0
2018-05-10T00:53:22.211Z,0
2018-05-10T00:54:32.023Z,0
2018-05-10T00:55:41.825Z,0
2018-05-10T00:56:51.945Z,0
2018-05-10T00:58:01.773Z,0
2018-05-10T00:59:11.845Z,0
2018-05-10T01:00:21.933Z,0
2018-05-10T01:01:32.014Z,0
2018-05-10T01:02:42.120Z,0
2018-05-10T01:03:51.664Z,0
2018-05-10T01:05:02.080Z,0
2018-05-10T01:06:12.152Z,0
2018-05-10T01:07:22.238Z,0
2018-05-10T01:08:31.838Z,0
2018-05-10T01:09:41.917Z,0
2018-05-10T01:10:52.006Z,0
2018-05-10T01:12:01.846Z,0
2018-05-10T01:13:11.930Z,0
2018-05-10T01:14:21.518Z,0
2018-05-10T01:15:31.333Z,0
2018-05-10T01:16:41.396Z,0
2018-05-10T01:17:51.487Z,0
2018-05-10T01:19:01.040Z,0
2018-05-10T01:20:10.911Z,0
2018-05-10T01:21:20.722Z,0
2018-05-10T01:22:30.516Z,0
2018-05-10T01:23:40.305Z,0
2018-05-10T01:24:50.385Z,0
2018-05-10T01:26:00.256Z,0
2018-05-10T01:27:10.078Z,0
2018-05-10T01:28:20.161Z,0
2018-05-10T01:29:30.269Z,0
2018-05-10T01:30:40.086Z,0
2018-05-10T01:31:50.218Z,0
2018-05-10T01:33:00.310Z,0
2018-05-10T01:34:09.862Z,0
2018-05-10T01:35:19.694Z,0
2018-05-10T01:36:29.780Z,0
2018-05-10T01:37:39.855Z,0
2018-05-10T01:38:49.413Z,0
2018-05-10T01:39:59.499Z,0
2018-05-10T01:41:09.318Z,0
2018-05-10T01:42:19.124Z,0
2018-05-10T01:43:29.251Z,0
2018-05-10T01:44:39.087Z,0
2018-05-10T01:45:48.920Z,0
2018-05-10T01:46:58.996Z,0
2018-05-10T01:48:08.788Z,0
2018-05-10T01:49:18.859Z,0
2018-05-10T01:50:28.672Z,0
2018-05-10T01:51:38.807Z,0
2018-05-10T01:52:48.906Z,0
2018-05-10T01:53:58.982Z,0
2018-05-10T01:55:08.794Z,0
2018-05-10T01:56:18.605Z,0
2018-05-10T01:57:28.160Z,0
2018-05-10T01:58:38.232Z,0
2018-05-10T01:59:47.776Z,0
2018-05-10T02:00:57.896Z,0
2018-05-10T02:02:07.727Z,0
2018-05-10T02:03:17.531Z,0
2018-05-10T02:04:27.605Z,0
2018-05-10T02:05:37.673Z,0
2018-05-10T02:06:47.744Z,0
2018-05-10T02:07:57.820Z,0
2018-05-10T02:09:07.639Z,0
2018-05-10T02:10:17.532Z,0
2018-05-10T02:11:27.359Z,0
2018-05-10T02:12:37.457Z,0
2018-05-10T02:13:47.540Z,0
2018-05-10T02:14:57.535Z,0
2018-05-10T02:16:07.613Z,0
2018-05-10T02:17:17.676Z,0
2018-05-10T02:18:27.553Z,0
2018-05-10T02:19:37.647Z,0
2018-05-10T02:20:47.739Z,0
2018-05-10T02:21:57.814Z,0
2018-05-10T02:23:07.624Z,0
2018-05-10T02:24:17.417Z,0
2018-05-10T02:25:27.488Z,0
2018-05-10T02:26:37.551Z,0
2018-05-10T02:27:47.636Z,0
2018-05-10T02:28:57.719Z,0
2018-05-10T02:30:07.855Z,0
2018-05-10T02:31:17.712Z,0
2018-05-10T02:32:27.788Z,0
2018-05-10T02:33:37.957Z,0
2018-05-10T02:34:47.681Z,0
2018-05-10T02:35:57.758Z,0
2018-05-10T02:37:07.671Z,0
2018-05-10T02:38:17.759Z,0
2018-05-10T02:39:27.578Z,0
2018-05-10T02:40:37.395Z,0
2018-05-10T02:41:47.262Z,0
2018-05-10T02:42:57.366Z,0
2018-05-10T02:44:07.508Z,0
2018-05-10T02:45:17.585Z,0
2018-05-10T02:46:27.685Z,0
2018-05-10T02:47:37.813Z,4
2018-05-10T02:48:47.921Z,4
2018-05-10T02:49:58.018Z,0
2018-05-10T02:51:07.840Z,0
2018-05-10T02:52:17.943Z,4
2018-05-10T02:53:28.031Z,0
2018-05-10T02:54:38.115Z,4
2018-05-10T02:55:49.942Z,4
2018-05-10T02:57:00.160Z,4
2018-05-10T02:58:09.962Z,8
2018-05-10T02:59:20.033Z,8
2018-05-10T03:00:30.131Z,12
2018-05-10T03:01:40.225Z,8
2018-05-10T03:34:23.431Z,392
2018-05-10T03:35:33.521Z,424
2018-05-10T03:36:43.572Z,464
2018-05-10T03:37:53.385Z,500
2018-05-10T03:39:03.449Z,540
2018-05-10T03:40:13.259Z,576
2018-05-10T03:41:23.347Z,612
2018-05-10T03:42:33.427Z,652
2018-05-10T03:43:43.488Z,692
2018-05-10T03:44:53.655Z,732
2018-05-10T03:46:03.784Z,772
2018-05-10T03:47:13.863Z,808
2018-05-10T03:48:23.933Z,848
2018-05-10T03:49:34.013Z,888
2018-05-10T03:50:43.820Z,928
2018-05-10T03:51:53.666Z,964
2018-05-10T03:53:03.460Z,1008
2018-05-10T03:54:13.527Z,1048
2018-05-10T03:55:23.335Z,1088
2018-05-10T03:56:33.163Z,1132
2018-05-10T03:57:43.258Z,1172
2018-05-10T03:58:53.342Z,1212
2018-05-10T04:00:03.442Z,1240
2018-05-10T04:01:13.536Z,1272
2018-05-10T04:02:23.616Z,1308
2018-05-10T04:03:33.709Z,1340
2018-05-10T04:04:43.540Z,1344
2018-05-10T04:05:53.660Z,1376
2018-05-10T04:07:03.484Z,1420
2018-05-10T04:08:13.560Z,1484
2018-05-10T04:09:23.677Z,1544
2018-05-10T04:10:33.799Z,1608
2018-05-10T04:11:43.873Z,1684
2018-05-10T04:12:53.957Z,1748
2018-05-10T04:14:04.033Z,1804
2018-05-10T04:15:13.839Z,1868
2018-05-10T04:16:23.657Z,1916
2018-05-10T04:17:33.723Z,2004
2018-05-10T04:18:43.261Z,2568
2018-05-10T04:19:53.323Z,3400
2018-05-10T04:21:03.445Z,4028
2018-05-10T04:22:13.542Z,4736
2018-05-10T04:23:23.443Z,4964
2018-05-10T04:24:33.257Z,4680
2018-05-10T04:25:43.069Z,4328
2018-05-10T04:26:53.146Z,4032
2018-05-10T04:28:03.260Z,3436
2018-05-10T04:29:13.354Z,3320
2018-05-10T04:30:23.144Z,3180
2018-05-10T04:31:32.953Z,2796
2018-05-10T04:32:43.024Z,2820
2018-05-10T04:33:53.100Z,3048
2018-05-10T04:35:03.165Z,3680
2018-05-10T04:36:12.986Z,4224
2018-05-10T04:37:23.039Z,3892
2018-05-10T04:38:33.121Z,3136
2018-05-10T04:39:43.183Z,3028
2018-05-10T04:40:53.270Z,3104
2018-05-10T04:42:03.351Z,3412
2018-05-10T04:43:13.174Z,3712
2018-05-10T04:44:23.041Z,4388
2018-05-10T04:45:33.165Z,4664
2018-05-10T04:46:43.057Z,4664
2018-05-10T04:47:53.145Z,5268
2018-05-10T04:49:03.238Z,5320
2018-05-10T04:50:13.353Z,5668
2018-05-10T04:51:23.428Z,5828
2018-05-10T04:52:33.508Z,6072
2018-05-10T04:53:43.606Z,6200
2018-05-10T04:54:53.678Z,6284
2018-05-10T04:56:03.862Z,6548
2018-05-10T04:57:13.938Z,7176
2018-05-10T04:58:23.746Z,7032
2018-05-10T04:59:33.827Z,6880
2018-05-10T05:00:43.929Z,6900
2018-05-10T05:01:54.012Z,7636
2018-05-10T05:03:04.078Z,8056
2018-05-10T05:04:13.615Z,8272
2018-05-10T05:05:23.686Z,8604
2018-05-10T05:06:33.753Z,8628
2018-05-10T05:07:43.983Z,8696
2018-05-10T05:08:54.342Z,8816
2018-05-10T05:10:04.484Z,8804
2018-05-10T05:11:14.550Z,8780
2018-05-10T05:12:24.655Z,8676
2018-05-10T05:13:34.798Z,8816
2018-05-10T05:14:44.601Z,8848
2018-05-10T05:15:54.710Z,8600
2018-05-10T05:17:04.789Z,8864
2018-05-10T05:18:14.898Z,8884
2018-05-10T05:19:24.969Z,8536
2018-05-10T05:20:35.039Z,8656
2018-05-10T05:21:45.223Z,8792
2018-05-10T05:22:55.032Z,8564
2018-05-10T05:24:05.122Z,8912
2018-05-10T05:25:14.732Z,9008
2018-05-10T05:26:24.556Z,9052
2018-05-10T05:27:34.628Z,8888
2018-05-10T05:28:44.720Z,8420
2018-05-10T05:29:54.846Z,4576
2018-05-10T05:31:04.942Z,3816
2018-05-10T05:32:15.015Z,3440
2018-05-10T05:33:24.873Z,3160
2018-05-10T05:34:34.758Z,2912
2018-05-10T05:35:45.017Z,2844
2018-05-10T05:36:55.148Z,2832
2018-05-10T05:38:05.224Z,2880
2018-05-10T05:39:14.794Z,2900
2018-05-10T05:40:24.914Z,2896
2018-05-10T05:41:35.189Z,2948
2018-05-10T05:42:45.325Z,2996
2018-05-10T05:43:55.417Z,3104
2018-05-10T05:45:05.500Z,3216
2018-05-10T05:46:15.598Z,3304
2018-05-10T05:47:25.687Z,3316
2018-05-10T05:48:35.508Z,3244
2018-05-10T05:49:45.324Z,3244
2018-05-10T05:50:55.403Z,3260
2018-05-10T05:52:05.475Z,3336
2018-05-10T05:53:15.561Z,3436
2018-05-10T05:54:25.446Z,3624
2018-05-10T05:55:35.523Z,3892
2018-05-10T05:56:45.357Z,4216
2018-05-10T05:57:55.428Z,4648
2018-05-10T05:59:05.510Z,4816
2018-05-10T06:00:15.697Z,5060
2018-05-10T06:01:25.513Z,5184
2018-05-10T06:02:35.597Z,5296
2018-05-10T06:03:45.402Z,5492
2018-05-10T06:04:55.581Z,5636
2018-05-10T06:06:05.415Z,5600
2018-05-10T06:07:15.495Z,5488
2018-05-10T06:08:25.309Z,5424
2018-05-10T06:09:35.394Z,5488
2018-05-10T06:10:45.461Z,5528
2018-05-10T06:11:55.558Z,6516
2018-05-10T06:13:05.655Z,6744
2018-05-10T06:14:15.480Z,6620
2018-05-10T06:15:25.734Z,6928
2018-05-10T06:16:35.913Z,6892
2018-05-10T06:17:46.009Z,6912
2018-05-10T06:18:55.580Z,6916
2018-05-10T06:20:05.667Z,7064
2018-05-10T06:21:15.744Z,7212
2018-05-10T06:22:25.566Z,7368
2018-05-10T06:23:35.671Z,7340
2018-05-10T06:24:45.802Z,7364
2018-05-10T06:25:55.935Z,7220
2018-05-10T06:27:06.038Z,6744
2018-05-10T06:28:16.133Z,6012
2018-05-10T06:29:25.730Z,5688
2018-05-10T06:30:35.559Z,5540
2018-05-10T06:31:45.647Z,5480
2018-05-10T06:32:55.471Z,5456
2018-05-10T06:34:05.495Z,5376
2018-05-10T06:35:15.103Z,5220
2018-05-10T06:36:24.666Z,5092
2018-05-10T06:37:34.482Z,4924
2018-05-10T06:38:44.564Z,4824
2018-05-10T06:39:54.657Z,4756
2018-05-10T06:41:04.757Z,4776
2018-05-10T06:42:14.584Z,4828
2018-05-10T06:43:24.671Z,5012
2018-05-10T06:44:34.779Z,4956
2018-05-10T06:45:44.889Z,4952
2018-05-10T06:46:55.487Z,4940
2018-05-10T06:48:05.813Z,4820
2018-05-10T06:49:15.885Z,4752
2018-05-10T06:50:25.993Z,4804
2018-05-10T06:51:35.820Z,4984
2018-05-10T06:52:45.443Z,5276
2018-05-10T06:53:54.999Z,5616
2018-05-10T06:55:05.083Z,5872
2018-05-10T06:56:15.179Z,6048
2018-05-10T06:57:25.258Z,6132
2018-05-10T06:58:35.131Z,6132
2018-05-10T06:59:44.946Z,6096
2018-05-10T07:00:55.025Z,6100
2018-05-10T07:02:04.858Z,6140
2018-05-10T07:03:14.998Z,6272
2018-05-10T07:04:25.240Z,6584
2018-05-10T07:05:35.326Z,6840
2018-05-10T07:06:45.445Z,6868
2018-05-10T07:07:55.514Z,7072
2018-05-10T07:09:05.601Z,7044
2018-05-10T07:10:15.436Z,6948
2018-05-10T07:11:25.532Z,6872
2018-05-10T07:12:35.084Z,6836
2018-05-10T07:13:44.658Z,6820
2018-05-10T07:14:54.736Z,6748
2018-05-10T07:16:04.556Z,6644
2018-05-10T07:17:14.639Z,6712
2018-05-10T07:18:24.465Z,7020
2018-05-10T07:19:34.542Z,7056
2018-05-10T07:20:44.612Z,7060
2018-05-10T07:21:54.725Z,8040
2018-05-10T07:23:04.810Z,7840
2018-05-10T07:24:14.368Z,8076
2018-05-10T07:25:25.029Z,7928
2018-05-10T07:26:34.760Z,7788
2018-05-10T07:27:44.847Z,7516
2018-05-10T07:28:54.658Z,7272
2018-05-10T07:30:04.738Z,7056
2018-05-10T07:31:14.553Z,6876
2018-05-10T07:32:24.127Z,6732
2018-05-10T07:33:34.220Z,6552
2018-05-10T07:34:44.051Z,6664
2018-05-10T07:35:54.131Z,6540
2018-05-10T07:37:03.703Z,6416
2018-05-10T07:38:13.837Z,6356
2018-05-10T07:39:23.926Z,6312
2018-05-10T07:40:33.482Z,6184
2018-05-10T07:41:43.571Z,5996
2018-05-10T07:42:53.650Z,5840
2018-05-10T07:44:03.497Z,5680
2018-05-10T07:45:13.701Z,5552
2018-05-10T07:46:23.887Z,5516
2018-05-10T07:47:34.324Z,5484
2018-05-10T07:48:44.184Z,5492
2018-05-10T07:49:54.279Z,5496
2018-05-10T07:51:04.116Z,5500
2018-05-10T07:52:14.199Z,5488
2018-05-10T07:53:24.471Z,5520
2018-05-10T07:54:34.568Z,5524
2018-05-10T07:55:44.664Z,5540
2018-05-10T07:56:54.487Z,5524
2018-05-10T07:58:04.576Z,5552
2018-05-10T07:59:14.687Z,5524
2018-05-10T08:00:24.521Z,5560
2018-05-10T08:01:34.713Z,5568
2018-05-10T08:02:44.555Z,5548
2018-05-10T08:03:54.375Z,5524
2018-05-10T08:05:04.201Z,5500
2018-05-10T08:06:14.026Z,5540
2018-05-10T08:07:24.140Z,5560
2018-05-10T08:08:34.261Z,5564
2018-05-10T08:09:44.097Z,5548
2018-05-10T08:10:54.184Z,5560
2018-05-10T08:12:04.006Z,5568
2018-05-10T08:13:13.832Z,5624
2018-05-10T08:14:23.929Z,5640
2018-05-10T08:15:33.463Z,5628
2018-05-10T08:16:43.547Z,5664
2018-05-10T08:17:53.639Z,5640
2018-05-10T08:19:03.710Z,5672
2018-05-10T08:20:13.806Z,5692
2018-05-10T08:21:23.900Z,5732
2018-05-10T08:22:33.796Z,5732
2018-05-10T08:23:43.885Z,5748
2018-05-10T08:24:53.728Z,5768
2018-05-10T08:26:03.822Z,5752
2018-05-10T08:27:13.911Z,5776
2018-05-10T08:28:24.062Z,5792
2018-05-10T08:29:34.165Z,5828
2018-05-10T08:30:44.296Z,5836
2018-05-10T08:31:54.118Z,5856
2018-05-10T08:33:04.219Z,5860
2018-05-10T08:34:14.370Z,5876
2018-05-10T08:35:24.458Z,5876
2018-05-10T08:36:34.622Z,5880
2018-05-10T08:37:44.797Z,5864
2018-05-10T08:38:54.883Z,5876
2018-05-10T08:40:05.008Z,5868
2018-05-10T08:41:14.836Z,5904
2018-05-10T08:42:24.911Z,5948
2018-05-10T08:43:34.739Z,5984
2018-05-10T08:44:44.836Z,5968
2018-05-10T08:45:54.681Z,5960
2018-05-10T08:47:04.761Z,5932
2018-05-10T08:48:14.593Z,5904
2018-05-10T08:49:24.409Z,5908
2018-05-10T08:50:34.494Z,5912
2018-05-10T08:51:44.784Z,5912
2018-05-10T08:52:55.059Z,5888
2018-05-10T08:54:05.150Z,5848
2018-05-10T08:55:15.491Z,5848
2018-05-10T08:56:25.052Z,5832
2018-05-10T08:57:35.192Z,5824
2018-05-10T08:58:45.285Z,5828
2018-05-10T08:59:54.924Z,5836
2018-05-10T09:01:05.095Z,5804
2018-05-10T09:02:14.924Z,5780
2018-05-10T09:03:25.009Z,5784
2018-05-10T09:04:35.101Z,5804
2018-05-10T09:05:45.182Z,5808
2018-05-10T09:06:55.277Z,5780
2018-05-10T09:08:05.389Z,5820
2018-05-10T09:09:15.212Z,5848
2018-05-10T09:10:25.321Z,5868
2018-05-10T09:11:35.426Z,5896
2018-05-10T09:12:45.281Z,5912
2018-05-10T09:13:55.376Z,5912
2018-05-10T09:15:05.250Z,5904
2018-05-10T09:16:15.342Z,5892
2018-05-10T09:17:25.173Z,5888
2018-05-10T09:18:35.258Z,5876
2018-05-10T09:19:45.340Z,5904
2018-05-10T09:20:55.180Z,5892
2018-05-10T09:22:05.254Z,5924
2018-05-10T09:23:14.817Z,5956
2018-05-10T09:24:24.912Z,5972
2018-05-10T09:25:34.737Z,5988
2018-05-10T09:26:44.374Z,5976
2018-05-10T09:27:54.439Z,6004
2018-05-10T09:29:04.539Z,6016
2018-05-10T09:30:14.633Z,6012
2018-05-10T09:31:24.713Z,6028
2018-05-10T09:32:34.615Z,6040
2018-05-10T09:33:44.759Z,6032
2018-05-10T09:34:54.932Z,6032
2018-05-10T09:36:04.760Z,6056
2018-05-10T09:37:14.587Z,6072
2018-05-10T09:38:24.782Z,6068
2018-05-10T09:39:35.250Z,6092
2018-05-10T09:40:45.495Z,5976
2018-05-10T09:41:55.315Z,5968
2018-05-10T09:43:05.438Z,5976
2018-05-10T09:44:15.586Z,6000
2018-05-10T09:45:25.483Z,5988
2018-05-10T09:46:35.575Z,6072
2018-05-10T09:47:45.678Z,6092
2018-05-10T09:48:55.773Z,6052
2018-05-10T09:50:05.850Z,6088
2018-05-10T09:51:15.924Z,6116
2018-05-10T09:52:26.002Z,6128
2018-05-10T09:53:35.826Z,6164
2018-05-10T09:54:45.912Z,6128
2018-05-10T09:55:55.987Z,6108
2018-05-10T09:57:06.090Z,6108
2018-05-10T09:58:16.161Z,6196
2018-05-10T09:59:26.264Z,6192
2018-05-10T10:00:36.369Z,6216
2018-05-10T10:01:46.458Z,6248
2018-05-10T10:02:56.361Z,6256
2018-05-10T10:04:06.470Z,6288
2018-05-10T10:05:16.592Z,6276
2018-05-10T10:06:26.762Z,6264
2018-05-10T10:07:36.847Z,6280
2018-05-10T10:08:46.948Z,6296
2018-05-10T10:09:57.074Z,6316
2018-05-10T10:11:06.941Z,6344
2018-05-10T10:12:17.050Z,6336
2018-05-10T10:13:26.881Z,6348
2018-05-10T10:14:36.710Z,6356
2018-05-10T10:15:46.477Z,6420
2018-05-10T10:16:56.741Z,6460
2018-05-10T10:18:06.851Z,6440
2018-05-10T10:19:16.935Z,6408
2018-05-10T10:20:27.038Z,6428
2018-05-10T10:21:36.893Z,6456
2018-05-10T10:22:46.718Z,6504
2018-05-10T10:23:56.288Z,6528
2018-05-10T10:25:06.143Z,6436
2018-05-10T10:26:17.830Z,6312
2018-05-10T10:27:28.970Z,6372
2018-05-10T10:28:39.068Z,6564
2018-05-10T10:29:49.144Z,6632
2018-05-10T10:30:59.304Z,6592
2018-05-10T10:32:09.391Z,6584
2018-05-10T10:33:20.225Z,6620
2018-05-10T10:34:31.198Z,6564
2018-05-10T10:35:42.409Z,5376
2018-05-10T10:36:53.396Z,6756
2018-05-10T10:38:04.881Z,6776
2018-05-10T10:39:15.578Z,6696
2018-05-10T10:40:25.941Z,6772
2018-05-10T10:41:35.786Z,6792
2018-05-10T10:42:45.897Z,6796
2018-05-10T10:43:56.095Z,6800
2018-05-10T10:45:06.292Z,6788
2018-05-10T10:46:16.123Z,6784
2018-05-10T10:47:26.228Z,6944
2018-05-10T10:48:36.436Z,6972
2018-05-10T10:49:46.345Z,7152
2018-05-10T10:50:56.189Z,7188
2018-05-10T10:52:06.286Z,7184
2018-05-10T10:53:16.904Z,7268
2018-05-10T10:54:27.010Z,7236
2018-05-10T10:55:37.369Z,7252
2018-05-10T10:56:47.733Z,7348
2018-05-10T10:57:57.833Z,7164
2018-05-10T10:59:08.013Z,7092
2018-05-10T11:00:18.093Z,7112
2018-05-10T11:01:28.190Z,7152
2018-05-10T11:02:38.325Z,7192
2018-05-10T11:03:48.201Z,7248
2018-05-10T11:04:58.533Z,7300
2018-05-10T11:06:08.653Z,7348
2018-05-10T11:07:18.472Z,7272
2018-05-10T11:08:28.600Z,6480
2018-05-10T11:09:39.214Z,5948
2018-05-10T11:10:49.842Z,5916
2018-05-10T11:12:00.416Z,6412
2018-05-10T11:13:11.029Z,5820
2018-05-10T11:14:21.403Z,5568
2018-05-10T11:15:32.280Z,5492
2018-05-10T11:16:42.520Z,5112
2018-05-10T11:17:52.875Z,5076
2018-05-10T11:19:03.485Z,4876
2018-05-10T11:20:13.594Z,4812
2018-05-10T11:21:23.723Z,4188
2018-05-10T11:22:34.920Z,3984
2018-05-10T11:23:45.654Z,3868
2018-05-10T11:24:56.067Z,3904
2018-05-10T11:26:06.194Z,3920
2018-05-10T11:27:16.404Z,3956
2018-05-10T11:28:26.626Z,4020
2018-05-10T11:29:36.722Z,4044
2018-05-10T11:30:46.546Z,4156
2018-05-10T11:31:56.385Z,4344
2018-05-10T11:33:06.672Z,4692
2018-05-10T11:34:16.870Z,5408
2018-05-10T11:35:26.969Z,5940
2018-05-10T11:36:37.085Z,6968
2018-05-10T11:37:47.257Z,7352
2018-05-10T11:38:57.109Z,7032
2018-05-10T11:40:06.976Z,6812
2018-05-10T11:41:17.088Z,6872
2018-05-10T11:42:26.404Z,6896
2018-05-10T11:43:36.239Z,7184
2018-05-10T11:44:46.089Z,7448
2018-05-10T11:45:56.218Z,8460
2018-05-10T11:47:05.786Z,8252
2018-05-10T11:48:15.647Z,8328
2018-05-10T11:49:25.494Z,8944
2018-05-10T11:50:35.679Z,9340
2018-05-10T11:51:45.571Z,9724
2018-05-10T11:52:55.703Z,10192
2018-05-10T11:54:05.812Z,9868
2018-05-10T11:55:15.946Z,9648
2018-05-10T11:56:25.783Z,9372
2018-05-10T11:57:35.943Z,9188
2018-05-10T11:58:46.045Z,8920
2018-05-10T11:59:56.155Z,7384
2018-05-10T12:01:06.259Z,6908
2018-05-10T12:02:16.399Z,6620
2018-05-10T12:03:26.495Z,5380
2018-05-10T12:04:36.640Z,7928
2018-05-10T12:05:46.730Z,6680
2018-05-10T12:06:56.863Z,5320
2018-05-10T12:08:06.695Z,4960
2018-05-10T12:09:16.847Z,4776
2018-05-10T12:10:27.173Z,4892
2018-05-10T12:11:37.263Z,5280
2018-05-10T12:12:47.357Z,5948
2018-05-10T12:13:57.487Z,6588
2018-05-10T12:15:07.615Z,7440
2018-05-10T12:16:17.443Z,7120
2018-05-10T12:17:27.543Z,5280
2018-05-10T12:18:37.647Z,5356
2018-05-10T12:19:47.506Z,5196
2018-05-10T12:20:57.394Z,5244
2018-05-10T12:22:07.564Z,4976
2018-05-10T12:23:17.675Z,4944
2018-05-10T12:24:27.247Z,5016
2018-05-10T12:25:37.335Z,5252
2018-05-10T12:26:47.590Z,6592
2018-05-10T12:27:57.683Z,6860
2018-05-10T12:29:07.818Z,6920
2018-05-10T12:30:17.912Z,7740
2018-05-10T12:31:28.053Z,7616
2018-05-10T12:32:38.161Z,7492
2018-05-10T12:33:48.273Z,7312
2018-05-10T12:34:58.128Z,6876
2018-05-10T12:36:07.986Z,6016
2018-05-10T12:37:18.086Z,5744
2018-05-10T12:38:28.208Z,5912
2018-05-10T12:39:38.066Z,6152
2018-05-10T12:40:47.658Z,7272
2018-05-10T12:41:57.781Z,6984
2018-05-10T12:43:07.983Z,6956
2018-05-10T12:44:17.660Z,7556
2018-05-10T12:45:27.755Z,7848
2018-05-10T12:46:37.840Z,7744
2018-05-10T12:47:48.215Z,8060
2018-05-10T12:48:58.334Z,7972
2018-05-10T12:50:08.168Z,8216
2018-05-10T12:51:18.255Z,8580
2018-05-10T12:52:28.347Z,7368
2018-05-10T12:53:38.445Z,8284
2018-05-10T12:54:48.526Z,8648
2018-05-10T12:55:58.403Z,8152
2018-05-10T12:57:08.514Z,6616
2018-05-10T12:58:18.367Z,6332
2018-05-10T12:59:28.194Z,6212
2018-05-10T13:00:38.299Z,6148
2018-05-10T13:01:48.135Z,6108
2018-05-10T13:02:58.186Z,5844
2018-05-10T13:04:08.387Z,5508
2018-05-10T13:05:18.473Z,5272
2018-05-10T13:06:28.563Z,5172
2018-05-10T13:07:38.651Z,5120
2018-05-10T13:08:48.467Z,5156
2018-05-10T13:09:58.574Z,5292
2018-05-10T13:11:09.284Z,5452
2018-05-10T13:12:19.443Z,5708
2018-05-10T13:13:29.850Z,6052
2018-05-10T13:14:39.970Z,6384
2018-05-10T13:15:49.797Z,6328
2018-05-10T13:16:59.874Z,6796
2018-05-10T13:18:09.712Z,6816
2018-05-10T13:19:19.871Z,7304
2018-05-10T13:20:30.061Z,7288
2018-05-10T13:21:40.308Z,7556
2018-05-10T13:22:50.432Z,7992
2018-05-10T13:24:00.534Z,8436
2018-05-10T13:25:10.657Z,8316
2018-05-10T13:26:20.735Z,8328
2018-05-10T13:27:31.155Z,8280
2018-05-10T13:28:41.268Z,8160
2018-05-10T13:29:51.374Z,7984
2018-05-10T13:31:01.199Z,7952
2018-05-10T13:32:11.281Z,8000
2018-05-10T13:33:21.093Z,8256
2018-05-10T13:34:30.915Z,8172
2018-05-10T13:35:40.224Z,7788
2018-05-10T13:36:50.065Z,7840
2018-05-10T13:37:59.912Z,7968
2018-05-10T13:39:09.732Z,7928
2018-05-10T13:40:19.299Z,7796
2018-05-10T13:41:28.864Z,7780
2018-05-10T13:42:38.960Z,7948
2018-05-10T13:43:48.811Z,8252
2018-05-10T13:44:58.652Z,8200
2018-05-10T13:46:08.995Z,7848
2018-05-10T13:47:19.227Z,7828
2018-05-10T13:48:29.483Z,8360
2018-05-10T13:49:39.577Z,9520
2018-05-10T13:50:49.664Z,9256
2018-05-10T13:51:59.514Z,9416
2018-05-10T13:53:09.922Z,9256
2018-05-10T13:54:19.808Z,9264
2018-05-10T13:55:29.631Z,9240
2018-05-10T13:56:39.469Z,9320
2018-05-10T13:57:49.577Z,9220
2018-05-10T13:58:59.928Z,8868
2018-05-10T14:00:10.080Z,8880
2018-05-10T14:01:20.172Z,8896
2018-05-10T14:02:30.375Z,8496
2018-05-10T14:03:40.489Z,8432
2018-05-10T14:04:50.588Z,8452
2018-05-10T14:06:00.500Z,7240
2018-05-10T14:07:10.328Z,8028
2018-05-10T14:08:20.450Z,8280
2018-05-10T14:09:30.296Z,8220
2018-05-10T14:10:40.141Z,8096
2018-05-10T14:11:50.026Z,7992
2018-05-10T14:12:59.861Z,7856
2018-05-10T14:14:09.449Z,7836
2018-05-10T14:15:19.564Z,7440
2018-05-10T14:16:29.544Z,4944
2018-05-10T14:17:39.454Z,4900
2018-05-10T14:18:49.271Z,7580
2018-05-10T14:19:59.371Z,7432
2018-05-10T14:21:09.193Z,7404
2018-05-10T14:22:19.288Z,4732
2018-05-10T14:23:28.873Z,4656
2018-05-10T14:24:38.989Z,7176
2018-05-10T14:25:49.093Z,7100
2018-05-10T14:26:59.176Z,7136
2018-05-10T14:28:09.313Z,7116
2018-05-10T14:29:19.427Z,7092
2018-05-10T14:30:29.872Z,7124
2018-05-10T14:31:39.958Z,7044
2018-05-10T14:32:49.912Z,6948
2018-05-10T14:34:00.097Z,6908
2018-05-10T14:35:10.240Z,6828
2018-05-10T14:36:20.404Z,6688
2018-05-10T14:37:30.236Z,6592
2018-05-10T14:38:40.343Z,6532
2018-05-10T14:39:50.473Z,6480
2018-05-10T14:41:00.297Z,6368
2018-05-10T14:42:10.397Z,6356
2018-05-10T14:43:20.493Z,6044
2018-05-10T14:44:30.606Z,3652
2018-05-10T14:45:40.436Z,3320
2018-05-10T14:46:50.707Z,3172
2018-05-10T14:48:00.563Z,3112
2018-05-10T14:49:10.681Z,3052
2018-05-10T14:50:20.808Z,3024
2018-05-10T14:51:31.000Z,3016
2018-05-10T14:52:40.881Z,3032
2018-05-10T14:53:50.968Z,3136
2018-05-10T14:55:01.060Z,3764
2018-05-10T14:56:11.167Z,5384
2018-05-10T14:57:21.333Z,3608
2018-05-10T14:58:31.474Z,5620
2018-05-10T14:59:41.395Z,5620
2018-05-10T15:00:51.607Z,5616
2018-05-10T15:02:01.714Z,5620
2018-05-10T15:03:11.816Z,5656
2018-05-10T15:04:21.928Z,5688
2018-05-10T15:05:32.032Z,5684
2018-05-10T15:06:42.156Z,5684
2018-05-10T15:07:52.264Z,5652
2018-05-10T15:09:02.371Z,5608
2018-05-10T15:10:12.474Z,5592
2018-05-10T15:11:22.560Z,5632
2018-05-10T15:12:32.390Z,5624
2018-05-10T15:13:42.488Z,5576
2018-05-10T15:14:52.582Z,5596
2018-05-10T15:16:02.464Z,5564
2018-05-10T15:17:12.573Z,5576
2018-05-10T15:18:22.675Z,5668
2018-05-10T15:19:32.498Z,5628
2018-05-10T15:20:42.578Z,4152
2018-05-10T15:21:52.707Z,3860
2018-05-10T15:23:02.812Z,3784
2018-05-10T15:24:12.985Z,3804
2018-05-10T15:25:23.092Z,3844
2018-05-10T15:26:33.201Z,3912
2018-05-10T15:27:43.367Z,4008
2018-05-10T15:28:53.461Z,4724
2018-05-10T15:30:03.593Z,4640
2018-05-10T15:31:13.712Z,4168
2018-05-10T15:32:23.839Z,3984
2018-05-10T15:33:34.009Z,3960
2018-05-10T15:34:44.098Z,4080
2018-05-10T15:35:54.183Z,4116
2018-05-10T15:37:04.289Z,4380
2018-05-10T15:38:14.406Z,4284
2018-05-10T15:39:24.507Z,4420
2018-05-10T15:40:34.601Z,4284
2018-05-10T15:41:44.688Z,4260
2018-05-10T15:42:54.816Z,4404
2018-05-10T15:44:04.682Z,4372
2018-05-10T15:45:14.826Z,4284
2018-05-10T15:46:24.925Z,4360
2018-05-10T15:47:35.060Z,5136
2018-05-10T15:48:45.232Z,5532
2018-05-10T15:49:55.334Z,5540
2018-05-10T15:51:05.462Z,4948
2018-05-10T15:52:15.670Z,4268
2018-05-10T15:53:25.790Z,4168
2018-05-10T15:54:35.888Z,4104
2018-05-10T15:55:45.992Z,4084
2018-05-10T15:56:55.952Z,4268
2018-05-10T15:58:06.061Z,4432
2018-05-10T15:59:15.910Z,4836
2018-05-10T16:00:26.036Z,5228
2018-05-10T16:01:36.141Z,5448
2018-05-10T16:02:46.273Z,5404
2018-05-10T16:03:56.364Z,5324
2018-05-10T16:05:06.457Z,5192
2018-05-10T16:06:16.552Z,5048
2018-05-10T16:07:26.666Z,4912
2018-05-10T16:08:36.838Z,4804
2018-05-10T16:09:46.939Z,4716
2018-05-10T16:10:57.033Z,4684
2018-05-10T16:12:07.133Z,4664
2018-05-10T16:13:17.233Z,4540
2018-05-10T16:14:27.355Z,4380
2018-05-10T16:15:37.461Z,4248
2018-05-10T16:16:47.570Z,4256
2018-05-10T16:17:57.673Z,3936
2018-05-10T16:19:07.523Z,3464
2018-05-10T16:20:17.646Z,3360
2018-05-10T16:21:27.502Z,3228
2018-05-10T16:22:37.630Z,2988